createdAt,value
2022-09-13T00:01:09.217Z,99720.00
2022-09-13T00:03:36.736Z,99715.00
2022-09-13T00:06:22.994Z,99715.00
2022-09-13T00:08:51.178Z,99712.00
2022-09-13T00:11:25.463Z,99706.00
2022-09-13T00:13:53.786Z,99711.00
2022-09-13T00:16:25.224Z,99707.00
2022-09-13T00:18:54.615Z,99710.00
2022-09-13T00:21:24.177Z,99708.00
2022-09-13T00:23:54.323Z,99702.00
2022-09-13T00:26:28.024Z,99694.00
2022-09-13T00:28:58.865Z,99691.00
2022-09-13T00:31:28.182Z,99688.00
2022-09-13T00:33:57.224Z,99691.00
2022-09-13T00:36:24.640Z,99693.00
2022-09-13T00:38:52.109Z,99695.00
2022-09-13T00:41:21.309Z,99707.00
2022-09-13T00:44:49.218Z,99688.00
2022-09-13T00:47:33.536Z,99691.00
2022-09-13T00:50:25.111Z,99672.00
2022-09-13T00:53:28.014Z,99675.00
2022-09-13T00:55:59.634Z,99676.00
2022-09-13T00:58:49.495Z,99668.00
2022-09-13T01:01:19.719Z,99666.00
2022-09-13T01:03:49.125Z,99673.00
2022-09-13T01:06:28.403Z,99671.00
2022-09-13T01:08:59.200Z,99674.00
2022-09-13T01:11:38.168Z,99666.00
2022-09-13T01:14:08.061Z,99661.00
2022-09-13T01:16:35.549Z,99670.00
2022-09-13T01:19:03.037Z,99664.00
2022-09-13T01:21:56.355Z,99655.00
2022-09-13T01:25:07.222Z,99648.00
2022-09-13T01:28:09.806Z,99641.00
2022-09-13T01:30:59.448Z,99630.00
2022-09-13T01:33:36.487Z,99630.00
2022-09-13T01:36:53.459Z,99613.00
2022-09-13T01:40:04.868Z,99606.00
2022-09-13T01:43:12.822Z,99598.00
2022-09-13T01:46:12.593Z,99600.00
2022-09-13T01:49:16.110Z,99597.00
2022-09-13T01:52:04.357Z,99582.00
2022-09-13T01:54:54.536Z,99587.00
2022-09-13T01:57:43.501Z,99586.00
2022-09-13T02:00:16.324Z,99582.00
2022-09-13T02:03:00.302Z,99568.00
2022-09-13T02:05:47.044Z,99578.00
2022-09-13T02:08:48.626Z,99579.00
2022-09-13T02:11:21.115Z,99576.00
2022-09-13T02:14:18.298Z,99571.00
2022-09-13T02:16:55.118Z,99567.00
2022-09-13T02:19:36.775Z,99563.00
2022-09-13T02:22:08.565Z,99565.00
2022-09-13T02:24:47.690Z,99567.00
2022-09-13T02:27:25.012Z,99553.00
2022-09-13T02:29:57.825Z,99552.00
2022-09-13T02:32:34.813Z,99549.00
2022-09-13T02:35:16.008Z,99538.00
2022-09-13T02:37:49.115Z,99541.00
2022-09-13T02:40:22.939Z,99539.00
2022-09-13T02:43:33.826Z,99541.00
2022-09-13T02:46:21.771Z,99544.00
2022-09-13T02:49:04.086Z,99543.00
2022-09-13T02:51:56.609Z,99548.00
2022-09-13T02:54:52.213Z,99545.00
2022-09-13T02:57:48.121Z,99539.00
2022-09-13T03:00:15.756Z,99541.00
2022-09-13T03:02:46.217Z,99535.00
2022-09-13T03:05:13.637Z,99538.00
2022-09-13T03:07:41.097Z,99540.00
2022-09-13T03:10:12.237Z,99540.00
2022-09-13T03:13:10.910Z,99547.00
2022-09-13T03:16:16.432Z,99545.00
2022-09-13T03:19:28.074Z,99553.00
2022-09-13T03:22:24.584Z,99555.00
2022-09-13T03:25:11.132Z,99564.00
2022-09-13T03:28:07.417Z,99571.00
2022-09-13T03:30:39.323Z,99561.00
2022-09-13T03:33:47.528Z,99565.00
2022-09-13T03:36:33.807Z,99575.00
2022-09-13T03:39:23.809Z,99571.00
2022-09-13T03:41:57.106Z,99573.00
2022-09-13T03:44:26.777Z,99567.00
2022-09-13T03:47:00.226Z,99564.00
2022-09-13T03:49:29.598Z,99562.00
2022-09-13T03:51:58.239Z,99565.00
2022-09-13T03:54:32.819Z,99577.00
2022-09-13T03:57:21.713Z,99568.00
2022-09-13T03:59:57.614Z,99566.00
2022-09-13T04:02:26.957Z,99565.00
2022-09-13T04:04:54.830Z,99571.00
2022-09-13T04:07:25.805Z,99572.00
2022-09-13T04:09:53.497Z,99574.00
2022-09-13T04:12:20.978Z,99574.00
2022-09-13T04:14:48.414Z,99574.00
2022-09-13T04:17:16.506Z,99577.00
2022-09-13T04:19:45.938Z,99582.00
2022-09-13T04:22:14.176Z,99580.00
2022-09-13T04:24:43.620Z,99575.00
2022-09-13T04:27:11.208Z,99566.00
2022-09-13T04:29:38.861Z,99563.00
2022-09-13T04:32:06.722Z,99552.00
2022-09-13T04:34:34.482Z,99549.00
2022-09-13T04:37:01.949Z,99550.00
2022-09-13T04:39:29.281Z,99556.00
2022-09-13T04:41:56.884Z,99567.00
2022-09-13T04:44:24.697Z,99563.00
2022-09-13T04:46:52.353Z,99552.00
2022-09-13T04:49:23.226Z,99554.00
2022-09-13T04:51:50.897Z,99560.00
2022-09-13T04:54:18.585Z,99547.00
2022-09-13T04:56:46.479Z,99524.00
2022-09-13T04:59:14.429Z,99533.00
2022-09-13T05:01:42.125Z,99539.00
2022-09-13T05:04:10.821Z,99543.00
2022-09-13T05:06:38.505Z,99545.00
2022-09-13T05:09:06.178Z,99526.00
2022-09-13T05:11:34.190Z,99521.00
2022-09-13T05:14:02.138Z,99520.00
2022-09-13T05:16:33.459Z,99516.00
2022-09-13T05:19:02.274Z,99517.00
2022-09-13T05:21:31.267Z,99521.00
2022-09-13T05:23:59.402Z,99530.00
2022-09-13T05:26:31.535Z,99524.00
2022-09-13T05:29:00.714Z,99522.00
2022-09-13T05:31:39.094Z,99531.00
2022-09-13T05:34:14.198Z,99533.00
2022-09-13T05:36:42.303Z,99534.00
2022-09-13T05:42:03.254Z,99536.00
2022-09-13T05:44:30.767Z,99532.00
2022-09-13T05:46:58.315Z,99534.00
2022-09-13T05:49:25.920Z,99536.00
2022-09-13T05:51:53.504Z,99538.00
2022-09-13T05:54:20.917Z,99542.00
2022-09-13T05:56:48.379Z,99537.00
2022-09-13T05:59:15.975Z,99527.00
2022-09-13T06:01:43.641Z,99540.00
2022-09-13T06:04:12.698Z,99529.00
2022-09-13T06:06:42.577Z,99524.00
2022-09-13T06:09:12.099Z,99523.00
2022-09-13T06:11:39.740Z,99523.00
2022-09-13T06:14:07.541Z,99522.00
2022-09-13T06:16:35.150Z,99526.00
2022-09-13T06:19:03.052Z,99523.00
2022-09-13T06:21:30.540Z,99512.00
2022-09-13T06:23:58.101Z,99506.00
2022-09-13T06:26:28.060Z,99510.00
2022-09-13T06:28:58.910Z,99508.00
2022-09-13T06:31:28.805Z,99516.00
2022-09-13T06:33:59.907Z,99510.00
2022-09-13T06:36:27.984Z,99513.00
2022-09-13T06:38:57.116Z,99514.00
2022-09-13T06:41:26.510Z,99504.00
2022-09-13T06:43:57.760Z,99507.00
2022-09-13T06:46:27.731Z,99507.00
2022-09-13T06:48:55.595Z,99505.00
2022-09-13T06:51:25.484Z,99504.00
2022-09-13T06:53:56.987Z,99493.00
2022-09-13T06:56:32.599Z,99497.00
2022-09-13T06:59:04.874Z,99503.00
2022-09-13T07:01:39.541Z,99503.00
2022-09-13T07:04:10.891Z,99503.00
2022-09-13T07:06:49.732Z,99503.00
2022-09-13T07:09:21.865Z,99503.00
2022-09-13T07:11:53.573Z,99507.00
2022-09-13T07:14:28.161Z,99504.00
2022-09-13T07:16:56.595Z,99504.00
2022-09-13T07:19:28.665Z,99499.00
2022-09-13T07:21:58.384Z,99509.00
2022-09-13T07:24:26.405Z,99505.00
2022-09-13T07:26:54.047Z,99501.00
2022-09-13T07:29:24.039Z,99495.00
2022-09-13T07:31:54.951Z,99505.00
2022-09-13T07:34:25.162Z,99513.00
2022-09-13T07:36:53.295Z,99509.00
2022-09-13T07:39:24.643Z,99491.00
2022-09-13T07:41:54.047Z,99498.00
2022-09-13T07:44:21.820Z,99497.00
2022-09-13T07:46:49.321Z,99503.00
2022-09-13T07:49:19.371Z,99498.00
2022-09-13T07:51:47.306Z,99501.00
2022-09-13T07:54:18.200Z,99501.00
2022-09-13T07:56:46.145Z,99500.00
2022-09-13T07:59:16.201Z,99506.00
2022-09-13T08:01:47.264Z,99505.00
2022-09-13T08:04:19.075Z,99502.00
2022-09-13T08:06:47.073Z,99511.00
2022-09-13T08:09:15.600Z,99514.00
2022-09-13T08:11:53.335Z,99511.00
2022-09-13T08:14:22.911Z,99505.00
2022-09-13T08:16:50.583Z,99506.00
2022-09-13T08:19:19.208Z,99494.00
2022-09-13T08:21:47.837Z,99506.00
2022-09-13T08:24:23.843Z,99520.00
2022-09-13T08:26:54.569Z,99521.00
2022-09-13T08:29:23.893Z,99529.00
2022-09-13T08:31:51.407Z,99529.00
2022-09-13T08:34:20.120Z,99526.00
2022-09-13T08:36:47.607Z,99528.00
2022-09-13T08:39:15.010Z,99523.00
2022-09-13T08:41:42.596Z,99531.00
2022-09-13T08:44:27.645Z,99531.00
2022-09-13T08:47:28.966Z,99536.00
2022-09-13T08:50:22.861Z,99531.00
2022-09-13T08:53:45.419Z,99531.00
2022-09-13T08:56:29.918Z,99535.00
2022-09-13T08:59:34.319Z,99537.00
2022-09-13T09:02:13.380Z,99534.00
2022-09-13T09:05:17.075Z,99534.00
2022-09-13T09:07:58.869Z,99531.00
2022-09-13T09:10:34.298Z,99532.00
2022-09-13T09:14:06.841Z,99532.00
2022-09-13T09:16:47.814Z,99538.00
2022-09-13T09:19:35.461Z,99544.00
2022-09-13T09:22:10.149Z,99537.00
2022-09-13T09:24:39.283Z,99535.00
2022-09-13T09:27:17.681Z,99537.00
2022-09-13T09:29:49.033Z,99533.00
2022-09-13T09:32:45.826Z,99539.00
2022-09-13T09:35:48.265Z,99543.00
2022-09-13T09:38:32.948Z,99540.00
2022-09-13T09:41:07.031Z,99537.00
2022-09-13T09:43:49.195Z,99528.00
2022-09-13T09:46:18.117Z,99531.00
2022-09-13T09:48:54.527Z,99524.00
2022-09-13T09:51:26.017Z,99533.00
2022-09-13T09:54:01.060Z,99532.00
2022-09-13T09:56:33.418Z,99523.00
2022-09-13T09:59:01.097Z,99500.00
2022-09-13T10:01:35.972Z,99513.00
2022-09-13T10:04:03.838Z,99514.00
2022-09-13T10:06:32.157Z,99510.00
2022-09-13T10:09:07.164Z,99502.00
2022-09-13T10:11:49.796Z,99513.00
2022-09-13T10:14:40.305Z,99507.00
2022-09-13T10:17:27.757Z,99511.00
2022-09-13T10:20:05.036Z,99515.00
2022-09-13T10:22:33.788Z,99510.00
2022-09-13T10:25:24.386Z,99514.00
2022-09-13T10:28:01.664Z,99506.00
2022-09-13T10:30:39.521Z,99508.00
2022-09-13T10:33:25.622Z,99518.00
2022-09-13T10:35:58.696Z,99515.00
2022-09-13T10:38:46.033Z,99511.00
2022-09-13T10:41:25.301Z,99516.00
2022-09-13T10:44:09.649Z,99503.00
2022-09-13T10:46:40.364Z,99505.00
2022-09-13T10:49:53.656Z,99511.00
2022-09-13T10:52:36.717Z,99515.00
2022-09-13T10:55:19.261Z,99507.00
2022-09-13T10:57:51.506Z,99510.00
2022-09-13T11:00:31.309Z,99514.00
2022-09-13T11:03:27.196Z,99523.00
2022-09-13T11:06:40.132Z,99506.00
2022-09-13T11:09:44.499Z,99508.00
2022-09-13T11:12:25.175Z,99508.00
2022-09-13T11:15:19.333Z,99508.00
2022-09-13T11:18:16.588Z,99508.00
2022-09-13T11:21:02.746Z,99500.00
2022-09-13T11:24:26.499Z,99507.00
2022-09-13T11:27:29.000Z,99515.00
2022-09-13T11:30:20.430Z,99508.00
2022-09-13T11:32:59.746Z,99499.00
2022-09-13T11:36:01.932Z,99497.00
2022-09-13T11:38:47.221Z,99494.00
2022-09-13T11:41:36.492Z,99497.00
2022-09-13T11:44:33.045Z,99508.00
2022-09-13T11:47:29.176Z,99499.00
2022-09-13T11:50:00.223Z,99501.00
2022-09-13T11:53:09.086Z,99497.00
2022-09-13T11:55:48.206Z,99488.00
2022-09-13T11:58:52.379Z,99497.00
2022-09-13T12:01:38.746Z,99505.00
2022-09-13T12:04:25.314Z,99498.00
2022-09-13T12:07:25.236Z,99505.00
2022-09-13T12:10:01.059Z,99488.00
2022-09-13T12:12:34.639Z,99485.00
2022-09-13T12:15:17.907Z,99478.00
2022-09-13T12:18:15.212Z,99474.00
2022-09-13T12:21:00.356Z,99478.00
2022-09-13T12:24:06.521Z,99481.00
2022-09-13T12:27:08.698Z,99486.00
2022-09-13T12:30:10.576Z,99478.00
2022-09-13T12:32:39.337Z,99470.00
2022-09-13T12:35:11.042Z,99477.00
2022-09-13T12:38:10.968Z,99473.00
2022-09-13T12:41:08.799Z,99470.00
2022-09-13T12:44:02.410Z,99465.00
2022-09-13T12:47:16.713Z,99465.00
2022-09-13T12:50:22.625Z,99464.00
2022-09-13T12:53:38.217Z,99466.00
2022-09-13T12:56:58.129Z,99467.00
2022-09-13T12:59:58.037Z,99472.00
2022-09-13T13:02:39.437Z,99475.00
2022-09-13T13:05:30.944Z,99472.00
2022-09-13T13:08:32.866Z,99475.00
2022-09-13T13:11:16.402Z,99474.00
2022-09-13T13:13:47.036Z,99469.00
2022-09-13T13:16:37.974Z,99473.00
2022-09-13T13:19:33.188Z,99467.00
2022-09-13T13:22:44.449Z,99466.00
2022-09-13T13:25:45.652Z,99462.00
2022-09-13T13:28:47.835Z,99458.00
2022-09-13T13:31:30.183Z,99461.00
2022-09-13T13:34:14.563Z,99460.00
2022-09-13T13:36:42.177Z,99466.00
2022-09-13T13:39:27.617Z,99465.00
2022-09-13T13:42:13.477Z,99466.00
2022-09-13T13:44:43.971Z,99460.00
2022-09-13T13:47:14.189Z,99464.00
2022-09-13T13:49:46.394Z,99460.00
2022-09-13T13:52:18.068Z,99448.00
2022-09-13T13:54:45.533Z,99456.00
2022-09-13T13:57:39.001Z,99456.00
2022-09-13T14:00:21.038Z,99454.00
2022-09-13T14:02:53.646Z,99453.00
2022-09-13T14:06:02.972Z,99445.00
2022-09-13T14:08:57.512Z,99445.00
2022-09-13T14:11:51.324Z,99446.00
2022-09-13T14:14:36.577Z,99445.00
2022-09-13T14:17:25.777Z,99436.00
2022-09-13T14:19:58.913Z,99439.00
2022-09-13T14:22:29.019Z,99443.00
2022-09-13T14:24:59.446Z,99444.00
2022-09-13T14:27:31.804Z,99442.00
2022-09-13T14:30:15.378Z,99445.00
2022-09-13T14:32:57.395Z,99436.00
2022-09-13T14:35:34.583Z,99437.00
2022-09-13T14:38:23.261Z,99443.00
2022-09-13T14:40:59.668Z,99441.00
2022-09-13T14:43:30.014Z,99445.00
2022-09-13T14:46:22.421Z,99438.00
2022-09-13T14:49:08.049Z,99433.00
2022-09-13T14:51:52.930Z,99437.00
2022-09-13T14:54:24.797Z,99445.00
2022-09-13T14:56:57.819Z,99436.00
2022-09-13T14:59:51.414Z,99438.00
2022-09-13T15:02:23.861Z,99429.00
2022-09-13T15:04:55.748Z,99427.00
2022-09-13T15:07:33.567Z,99438.00
2022-09-13T15:10:13.237Z,99432.00
2022-09-13T15:13:09.180Z,99428.00
2022-09-13T15:15:42.609Z,99435.00
2022-09-13T15:18:16.064Z,99433.00
2022-09-13T15:21:04.847Z,99436.00
2022-09-13T15:23:39.482Z,99434.00
2022-09-13T15:26:26.388Z,99435.00
2022-09-13T15:28:57.465Z,99434.00
2022-09-13T15:31:31.474Z,99436.00
2022-09-13T15:34:17.549Z,99430.00
2022-09-13T15:36:47.159Z,99441.00
2022-09-13T15:39:21.870Z,99441.00
2022-09-13T15:42:00.844Z,99440.00
2022-09-13T15:44:30.072Z,99442.00
2022-09-13T15:47:05.118Z,99451.00
2022-09-13T15:49:33.357Z,99443.00
2022-09-13T15:52:05.864Z,99445.00
2022-09-13T15:54:41.143Z,99440.00
2022-09-13T15:57:25.089Z,99441.00
2022-09-13T15:59:54.406Z,99448.00
2022-09-13T16:02:26.549Z,99451.00
2022-09-13T16:04:54.780Z,99451.00
2022-09-13T16:07:24.639Z,99448.00
2022-09-13T16:09:52.756Z,99440.00
2022-09-13T16:12:23.703Z,99446.00
2022-09-13T16:14:51.155Z,99447.00
2022-09-13T16:17:27.627Z,99450.00
2022-09-13T16:19:55.602Z,99448.00
2022-09-13T16:22:23.711Z,99449.00
2022-09-13T16:24:51.098Z,99453.00
2022-09-13T16:27:20.048Z,99459.00
2022-09-13T16:29:48.496Z,99455.00
2022-09-13T16:32:15.984Z,99455.00
2022-09-13T16:34:43.390Z,99453.00
2022-09-13T16:37:16.228Z,99450.00
2022-09-13T16:39:45.829Z,99450.00
2022-09-13T16:42:15.538Z,99452.00
2022-09-13T16:44:43.601Z,99451.00
2022-09-13T16:47:11.303Z,99454.00
2022-09-13T16:49:39.052Z,99441.00
2022-09-13T16:52:07.486Z,99440.00
2022-09-13T16:54:35.978Z,99446.00
2022-09-13T16:57:07.431Z,99441.00
2022-09-13T16:59:34.977Z,99445.00
2022-09-13T17:02:04.013Z,99443.00
2022-09-13T17:04:31.692Z,99442.00
2022-09-13T17:07:02.126Z,99434.00
2022-09-13T17:09:31.033Z,99445.00
2022-09-13T17:11:58.853Z,99450.00
2022-09-13T17:14:26.517Z,99448.00
2022-09-13T17:16:56.737Z,99448.00
2022-09-13T17:19:30.597Z,99446.00
2022-09-13T17:21:58.505Z,99443.00
2022-09-13T17:24:28.373Z,99434.00
2022-09-13T17:26:59.748Z,99438.00
2022-09-13T17:29:31.195Z,99436.00
2022-09-13T17:32:00.553Z,99439.00
2022-09-13T17:34:29.059Z,99436.00
2022-09-13T17:36:57.372Z,99427.00
2022-09-13T17:39:25.012Z,99421.00
2022-09-13T17:41:52.682Z,99435.00
2022-09-13T17:44:20.072Z,99425.00
2022-09-13T17:46:47.431Z,99437.00
2022-09-13T17:49:15.075Z,99440.00
2022-09-13T17:51:43.371Z,99447.00
2022-09-13T17:54:12.065Z,99444.00
2022-09-13T17:56:43.280Z,99448.00
2022-09-13T17:59:15.856Z,99447.00
2022-09-13T18:01:49.595Z,99449.00
2022-09-13T18:04:19.442Z,99450.00
2022-09-13T18:06:47.228Z,99446.00
2022-09-13T18:09:16.142Z,99451.00
2022-09-13T18:11:44.651Z,99454.00
2022-09-13T18:14:16.238Z,99456.00
2022-09-13T18:16:45.092Z,99464.00
2022-09-13T18:19:12.900Z,99461.00
2022-09-13T18:21:40.661Z,99457.00
2022-09-13T18:24:08.247Z,99452.00
2022-09-13T18:26:36.449Z,99457.00
2022-09-13T18:29:14.749Z,99456.00
2022-09-13T18:31:43.045Z,99453.00
2022-09-13T18:34:13.654Z,99460.00
2022-09-13T18:36:41.893Z,99460.00
2022-09-13T18:39:20.296Z,99461.00
2022-09-13T18:41:48.702Z,99456.00
2022-09-13T18:44:17.816Z,99453.00
2022-09-13T18:46:46.746Z,99461.00
2022-09-13T18:49:15.296Z,99468.00
2022-09-13T18:51:45.237Z,99465.00
2022-09-13T18:54:16.339Z,99466.00
2022-09-13T18:56:45.470Z,99471.00
2022-09-13T18:59:13.784Z,99469.00
2022-09-13T19:01:43.611Z,99470.00
2022-09-13T19:04:20.087Z,99477.00
2022-09-13T19:06:54.255Z,99474.00
2022-09-13T19:09:22.926Z,99473.00
2022-09-13T19:11:53.337Z,99475.00
2022-09-13T19:14:32.710Z,99476.00
2022-09-13T19:17:04.832Z,99473.00
2022-09-13T19:19:32.484Z,99471.00
2022-09-13T19:21:59.956Z,99474.00
2022-09-13T19:24:27.611Z,99480.00
2022-09-13T19:26:55.176Z,99472.00
2022-09-13T19:29:24.240Z,99477.00
2022-09-13T19:31:53.409Z,99473.00
2022-09-13T19:34:22.860Z,99469.00
2022-09-13T19:36:57.995Z,99473.00
2022-09-13T19:39:29.586Z,99468.00
2022-09-13T19:42:02.533Z,99475.00
2022-09-13T19:44:30.267Z,99476.00
2022-09-13T19:47:36.246Z,99475.00
2022-09-13T19:49:45.360Z,99474.00
2022-09-13T19:52:12.799Z,99478.00
2022-09-13T19:54:40.416Z,99470.00
2022-09-13T19:57:09.796Z,99473.00
2022-09-13T19:59:37.626Z,99472.00
2022-09-13T20:02:05.588Z,99477.00
2022-09-13T20:04:33.263Z,99468.00
2022-09-13T20:07:00.782Z,99476.00
2022-09-13T20:09:28.276Z,99472.00
2022-09-13T20:12:00.644Z,99465.00
2022-09-13T20:14:28.263Z,99468.00
2022-09-13T20:16:55.670Z,99474.00
2022-09-13T20:19:40.637Z,99475.00
2022-09-13T20:22:10.513Z,99477.00
2022-09-13T20:24:37.971Z,99471.00
2022-09-13T20:27:05.864Z,99474.00
2022-09-13T20:29:33.572Z,99481.00
2022-09-13T20:32:02.397Z,99477.00
2022-09-13T20:34:30.154Z,99483.00
2022-09-13T20:36:57.811Z,99491.00
2022-09-13T20:39:25.485Z,99483.00
2022-09-13T20:41:54.168Z,99483.00
2022-09-13T20:44:21.718Z,99481.00
2022-09-13T20:46:49.204Z,99480.00
2022-09-13T20:49:17.015Z,99483.00
2022-09-13T20:51:44.410Z,99478.00
2022-09-13T20:54:13.497Z,99482.00
2022-09-13T20:56:41.196Z,99478.00
2022-09-13T20:59:08.644Z,99476.00
2022-09-13T21:01:36.816Z,99476.00
2022-09-13T21:04:05.383Z,99475.00
2022-09-13T21:07:00.532Z,99474.00
2022-09-13T21:09:28.725Z,99477.00
2022-09-13T21:11:56.246Z,99475.00
2022-09-13T21:14:23.995Z,99477.00
2022-09-13T21:16:51.548Z,99482.00
2022-09-13T21:19:19.061Z,99474.00
2022-09-13T21:21:46.705Z,99481.00
2022-09-13T21:24:15.961Z,99486.00
2022-09-13T21:26:43.566Z,99489.00
2022-09-13T21:29:12.087Z,99492.00
2022-09-13T21:31:40.666Z,99493.00
2022-09-13T21:34:19.235Z,99490.00
2022-09-13T21:36:48.034Z,99484.00
2022-09-13T21:39:16.711Z,99484.00
2022-09-13T21:41:44.222Z,99488.00
2022-09-13T21:44:12.374Z,99494.00
2022-09-13T21:46:41.161Z,99492.00
2022-09-13T21:49:12.386Z,99507.00
2022-09-13T21:51:45.817Z,99505.00
2022-09-13T21:54:19.368Z,99502.00
2022-09-13T21:56:54.280Z,99504.00
2022-09-13T21:59:22.460Z,99509.00
2022-09-13T22:01:52.086Z,99502.00
2022-09-13T22:04:27.599Z,99494.00
2022-09-13T22:06:56.007Z,99497.00
2022-09-13T22:09:27.401Z,99489.00
2022-09-13T22:11:56.820Z,99490.00
2022-09-13T22:14:24.198Z,99492.00
2022-09-13T22:16:53.371Z,99488.00
2022-09-13T22:19:26.992Z,99491.00
2022-09-13T22:21:59.395Z,99488.00
2022-09-13T22:24:32.361Z,99494.00
2022-09-13T22:27:00.023Z,99496.00
2022-09-13T22:29:28.410Z,99494.00
2022-09-13T22:31:55.899Z,99492.00
2022-09-13T22:34:25.664Z,99505.00
2022-09-13T22:36:55.969Z,99504.00
2022-09-13T22:39:24.202Z,99495.00
2022-09-13T22:41:51.911Z,99493.00
2022-09-13T22:44:19.521Z,99501.00
2022-09-13T22:46:47.943Z,99490.00
2022-09-13T22:49:20.040Z,99500.00
2022-09-13T22:51:49.208Z,99509.00
2022-09-13T22:54:18.635Z,99500.00
2022-09-13T22:56:46.173Z,99502.00
2022-09-13T22:59:20.708Z,99500.00
2022-09-13T23:01:48.848Z,99495.00
2022-09-13T23:04:17.160Z,99494.00
2022-09-13T23:06:45.424Z,99496.00
2022-09-13T23:09:18.155Z,99489.00
2022-09-13T23:11:46.164Z,99493.00
2022-09-13T23:14:16.452Z,99490.00
2022-09-13T23:16:54.357Z,99498.00
2022-09-13T23:19:23.269Z,99491.00
2022-09-13T23:21:53.874Z,99489.00
2022-09-13T23:24:25.468Z,99483.00
2022-09-13T23:26:56.082Z,99475.00
2022-09-13T23:29:23.550Z,99475.00
2022-09-13T23:31:52.169Z,99466.00
2022-09-13T23:34:19.825Z,99468.00
2022-09-13T23:36:47.616Z,99469.00
2022-09-13T23:39:18.977Z,99465.00
2022-09-13T23:41:49.410Z,99464.00
2022-09-13T23:44:17.709Z,99462.00
2022-09-13T23:46:45.278Z,99462.00
2022-09-13T23:49:12.830Z,99464.00
2022-09-13T23:51:40.285Z,99462.00
2022-09-13T23:54:08.581Z,99456.00
2022-09-13T23:56:36.941Z,99448.00
2022-09-13T23:59:06.436Z,99456.00
